MSC3204 LQSA-HEGN
Flight info
| Callsign | MSC3204 |
|---|---|
| Flight time | N/A |
| Altitude | 37000 |
| Route | OSLUD DCT NEPSI DCT MEDUX UM867 KOGAT DCT ERANA UL737 TSL UN130 MES UL609 RDS UL995 VANZA DCT RASDA A16 CVO L315 HGD |
| Aircraft | E190/M-SDE3GILORVW/S |
Departure
| Time | N/A |
|---|---|
| Airport | Sarajevo International Airport (LQSA) |
Arrival
| Time | 2026-04-27 21:25 |
|---|---|
| Airport | Hurghada International Airport (HEGN) |
| Time | Latitude | Longitude | Altitude | Speed | Heading |
|---|---|---|---|---|---|
| 2026-04-27 20:37 | 31.19532 | 31.18514 | 28930 ft | 381 kts | 179° |
| 2026-04-27 20:37 | 31.16880 | 31.18876 | 29382 ft | 377 kts | 180° |
| 2026-04-27 20:37 | 31.14342 | 31.19348 | 30213 ft | 370 kts | 175° |
| 2026-04-27 20:38 | 31.11820 | 31.19858 | 30883 ft | 356 kts | 178° |
| 2026-04-27 20:38 | 31.09405 | 31.20302 | 31195 ft | 349 kts | 179° |
| 2026-04-27 20:38 | 31.04487 | 31.21108 | 31148 ft | 370 kts | 179° |
| 2026-04-27 20:39 | 30.99257 | 31.21955 | 31365 ft | 386 kts | 179° |
| 2026-04-27 20:39 | 30.93799 | 31.22845 | 31439 ft | 406 kts | 178° |
| 2026-04-27 20:40 | 30.90999 | 31.23305 | 31630 ft | 411 kts | 178° |
| 2026-04-27 20:40 | 30.88136 | 31.23770 | 31678 ft | 421 kts | 178° |
| 2026-04-27 20:40 | 30.82232 | 31.24732 | 32017 ft | 431 kts | 178° |
| 2026-04-27 20:41 | 30.80272 | 31.25050 | 32282 ft | 430 kts | 178° |
| 2026-04-27 20:41 | 30.77310 | 31.25528 | 32707 ft | 428 kts | 178° |
| 2026-04-27 20:41 | 30.74370 | 31.25998 | 33091 ft | 426 kts | 178° |
| 2026-04-27 20:41 | 30.71432 | 31.26491 | 33424 ft | 427 kts | 176° |
| 2026-04-27 20:42 | 30.68495 | 31.27073 | 33757 ft | 427 kts | 176° |
| 2026-04-27 20:42 | 30.65593 | 31.27668 | 34225 ft | 420 kts | 176° |
| 2026-04-27 20:42 | 30.62724 | 31.28245 | 34556 ft | 417 kts | 176° |
| 2026-04-27 20:42 | 30.59860 | 31.28809 | 34757 ft | 418 kts | 177° |
| 2026-04-27 20:43 | 30.56999 | 31.29370 | 35111 ft | 413 kts | 177° |
| 2026-04-27 20:43 | 30.54184 | 31.29920 | 35432 ft | 410 kts | 177° |
| 2026-04-27 20:43 | 30.51393 | 31.30464 | 35796 ft | 404 kts | 178° |
| 2026-04-27 20:43 | 30.48629 | 31.31000 | 36021 ft | 402 kts | 178° |
| 2026-04-27 20:44 | 30.45913 | 31.31528 | 36350 ft | 397 kts | 178° |
| 2026-04-27 20:44 | 30.43190 | 31.32056 | 36546 ft | 396 kts | 178° |
| 2026-04-27 20:44 | 30.40481 | 31.32582 | 36812 ft | 392 kts | 179° |
| 2026-04-27 20:44 | 30.37799 | 31.33103 | 37043 ft | 390 kts | 179° |
| 2026-04-27 20:45 | 30.32471 | 31.34134 | 37074 ft | 389 kts | 179° |
| 2026-04-27 20:45 | 30.27073 | 31.35175 | 37093 ft | 396 kts | 179° |
| 2026-04-27 20:46 | 30.21586 | 31.36238 | 37141 ft | 403 kts | 179° |
| 2026-04-27 20:46 | 30.15965 | 31.37322 | 37039 ft | 414 kts | 179° |
| 2026-04-27 20:47 | 30.10225 | 31.38433 | 37048 ft | 422 kts | 179° |
| 2026-04-27 20:47 | 30.07339 | 31.39310 | 37072 ft | 437 kts | 165° |
| 2026-04-27 20:47 | 30.04654 | 31.40991 | 37078 ft | 451 kts | 151° |
| 2026-04-27 20:48 | 29.99518 | 31.45463 | 37053 ft | 464 kts | 148° |
| 2026-04-27 20:48 | 29.94367 | 31.50000 | 37026 ft | 472 kts | 149° |
| 2026-04-27 20:49 | 29.89059 | 31.54563 | 37016 ft | 480 kts | 149° |
| 2026-04-27 20:49 | 29.83641 | 31.59208 | 37030 ft | 488 kts | 149° |
| 2026-04-27 20:50 | 29.78141 | 31.63920 | 37013 ft | 496 kts | 149° |
| 2026-04-27 20:50 | 29.72568 | 31.68689 | 37028 ft | 502 kts | 149° |
| 2026-04-27 20:51 | 29.66967 | 31.73476 | 37023 ft | 505 kts | 149° |
| 2026-04-27 20:51 | 29.61323 | 31.78293 | 37028 ft | 505 kts | 149° |
| 2026-04-27 20:52 | 29.55673 | 31.83107 | 37027 ft | 505 kts | 149° |
| 2026-04-27 20:52 | 29.50016 | 31.87917 | 37021 ft | 506 kts | 149° |
| 2026-04-27 20:53 | 29.44361 | 31.92723 | 37027 ft | 506 kts | 149° |
| 2026-04-27 20:53 | 29.38695 | 31.97530 | 37024 ft | 506 kts | 149° |
| 2026-04-27 20:54 | 29.30197 | 32.04727 | 37026 ft | 506 kts | 149° |
| 2026-04-27 20:55 | 29.24526 | 32.09521 | 37028 ft | 506 kts | 149° |
| 2026-04-27 20:55 | 29.18857 | 32.14306 | 37030 ft | 505 kts | 149° |
| 2026-04-27 20:56 | 29.13185 | 32.19086 | 37018 ft | 506 kts | 149° |
| 2026-04-27 20:56 | 29.08037 | 32.23421 | 37018 ft | 505 kts | 150° |
| 2026-04-27 20:57 | 29.02389 | 32.28168 | 37026 ft | 506 kts | 150° |
| 2026-04-27 20:57 | 28.96714 | 32.32932 | 37024 ft | 506 kts | 150° |
| 2026-04-27 20:58 | 28.90994 | 32.37727 | 37037 ft | 507 kts | 150° |
| 2026-04-27 20:58 | 28.85335 | 32.42463 | 37036 ft | 508 kts | 150° |
| 2026-04-27 20:59 | 28.79629 | 32.47233 | 37021 ft | 508 kts | 150° |
| 2026-04-27 20:59 | 28.73933 | 32.51990 | 37012 ft | 507 kts | 150° |
| 2026-04-27 21:00 | 28.68238 | 32.56738 | 37021 ft | 507 kts | 150° |
| 2026-04-27 21:00 | 28.62549 | 32.61475 | 37022 ft | 507 kts | 150° |
| 2026-04-27 21:01 | 28.56841 | 32.66221 | 37019 ft | 507 kts | 150° |
| 2026-04-27 21:01 | 28.51145 | 32.70951 | 37016 ft | 507 kts | 150° |
| 2026-04-27 21:02 | 28.45441 | 32.75681 | 37010 ft | 507 kts | 151° |
| 2026-04-27 21:02 | 28.39734 | 32.80407 | 37005 ft | 507 kts | 151° |
| 2026-04-27 21:03 | 28.34033 | 32.85119 | 36491 ft | 503 kts | 151° |
| 2026-04-27 21:03 | 28.31278 | 32.87397 | 36214 ft | 490 kts | 151° |
| 2026-04-27 21:03 | 28.28504 | 32.89681 | 35426 ft | 490 kts | 150° |
| 2026-04-27 21:03 | 28.25758 | 32.91937 | 34819 ft | 486 kts | 150° |
| 2026-04-27 21:04 | 28.23023 | 32.94184 | 34143 ft | 484 kts | 150° |
| 2026-04-27 21:04 | 28.20301 | 32.96421 | 33448 ft | 481 kts | 150° |
| 2026-04-27 21:04 | 28.17615 | 32.98631 | 32868 ft | 474 kts | 150° |
| 2026-04-27 21:04 | 28.14941 | 33.00818 | 32126 ft | 471 kts | 150° |
| 2026-04-27 21:05 | 28.12243 | 33.02876 | 31536 ft | 464 kts | 152° |
| 2026-04-27 21:05 | 28.09546 | 33.04868 | 30929 ft | 460 kts | 152° |
| 2026-04-27 21:05 | 28.06880 | 33.06846 | 30298 ft | 457 kts | 152° |
| 2026-04-27 21:05 | 28.04268 | 33.08797 | 29694 ft | 453 kts | 151° |
| 2026-04-27 21:06 | 28.01664 | 33.10755 | 29105 ft | 447 kts | 151° |
| 2026-04-27 21:06 | 27.99070 | 33.12705 | 28528 ft | 446 kts | 151° |
| 2026-04-27 21:06 | 27.96466 | 33.14658 | 27911 ft | 454 kts | 151° |
| 2026-04-27 21:06 | 27.93816 | 33.16648 | 27319 ft | 456 kts | 150° |
| 2026-04-27 21:07 | 27.91176 | 33.18633 | 26694 ft | 455 kts | 150° |
| 2026-04-27 21:07 | 27.88550 | 33.20607 | 26097 ft | 451 kts | 150° |
| 2026-04-27 21:07 | 27.85911 | 33.22591 | 25490 ft | 447 kts | 150° |
| 2026-04-27 21:07 | 27.83388 | 33.24485 | 24913 ft | 442 kts | 150° |
| 2026-04-27 21:08 | 27.80883 | 33.26364 | 24334 ft | 438 kts | 150° |
| 2026-04-27 21:08 | 27.78352 | 33.28261 | 23759 ft | 434 kts | 150° |
| 2026-04-27 21:08 | 27.75841 | 33.30142 | 23135 ft | 430 kts | 150° |
| 2026-04-27 21:08 | 27.73370 | 33.31994 | 22619 ft | 422 kts | 150° |
| 2026-04-27 21:09 | 27.70937 | 33.33816 | 22045 ft | 417 kts | 150° |
| 2026-04-27 21:09 | 27.68529 | 33.35617 | 21491 ft | 413 kts | 150° |
| 2026-04-27 21:09 | 27.66946 | 33.36800 | 21126 ft | 410 kts | 150° |
| 2026-04-27 21:09 | 27.64926 | 33.38312 | 20670 ft | 407 kts | 149° |
| 2026-04-27 21:10 | 27.62570 | 33.40072 | 20132 ft | 403 kts | 149° |
| 2026-04-27 21:10 | 27.60243 | 33.41811 | 19593 ft | 399 kts | 149° |
| 2026-04-27 21:10 | 27.57942 | 33.43530 | 19067 ft | 395 kts | 149° |
| 2026-04-27 21:10 | 27.55663 | 33.45231 | 18545 ft | 391 kts | 149° |
| 2026-04-27 21:11 | 27.53438 | 33.46891 | 18005 ft | 387 kts | 149° |
| 2026-04-27 21:11 | 27.51184 | 33.48573 | 17525 ft | 380 kts | 149° |
| 2026-04-27 21:11 | 27.48987 | 33.50211 | 16994 ft | 377 kts | 149° |
| 2026-04-27 21:11 | 27.46839 | 33.51811 | 16518 ft | 374 kts | 149° |
| 2026-04-27 21:12 | 27.44676 | 33.53423 | 16019 ft | 371 kts | 149° |
| 2026-04-27 21:12 | 27.42526 | 33.55025 | 15528 ft | 369 kts | 149° |
| 2026-04-27 21:12 | 27.40388 | 33.56614 | 15050 ft | 367 kts | 149° |
| 2026-04-27 21:12 | 27.38264 | 33.58195 | 14553 ft | 364 kts | 148° |
| 2026-04-27 21:13 | 27.36162 | 33.59744 | 14075 ft | 358 kts | 152° |
| 2026-04-27 21:13 | 27.33900 | 33.60813 | 13600 ft | 349 kts | 166° |
| 2026-04-27 21:13 | 27.31579 | 33.61518 | 13145 ft | 342 kts | 168° |
| 2026-04-27 21:13 | 27.29292 | 33.62191 | 12706 ft | 337 kts | 168° |
| 2026-04-27 21:14 | 27.27033 | 33.62860 | 12252 ft | 333 kts | 167° |
| 2026-04-27 21:14 | 27.24805 | 33.63516 | 11810 ft | 329 kts | 167° |
| 2026-04-27 21:14 | 27.22631 | 33.64156 | 11386 ft | 325 kts | 167° |
| 2026-04-27 21:14 | 27.20448 | 33.64795 | 10965 ft | 322 kts | 167° |
| 2026-04-27 21:15 | 27.18292 | 33.65427 | 10497 ft | 319 kts | 167° |
| 2026-04-27 21:15 | 27.16113 | 33.66071 | 9932 ft | 323 kts | 166° |
| 2026-04-27 21:15 | 27.13961 | 33.66711 | 9520 ft | 318 kts | 166° |
| 2026-04-27 21:15 | 27.11840 | 33.67341 | 9126 ft | 313 kts | 166° |
| 2026-04-27 21:16 | 27.09752 | 33.67960 | 8721 ft | 309 kts | 166° |
| 2026-04-27 21:16 | 27.07678 | 33.68575 | 8345 ft | 305 kts | 166° |
| 2026-04-27 21:16 | 27.05633 | 33.69178 | 7959 ft | 303 kts | 166° |
| 2026-04-27 21:16 | 27.04282 | 33.69577 | 7697 ft | 301 kts | 166° |
| 2026-04-27 21:17 | 27.02269 | 33.70173 | 7359 ft | 297 kts | 166° |
| 2026-04-27 21:17 | 27.00268 | 33.70764 | 6949 ft | 297 kts | 166° |
| 2026-04-27 21:17 | 26.98274 | 33.71354 | 6578 ft | 295 kts | 166° |
| 2026-04-27 21:17 | 26.96300 | 33.71936 | 6309 ft | 290 kts | 165° |
| 2026-04-27 21:18 | 26.94451 | 33.72775 | 6188 ft | 286 kts | 144° |
| 2026-04-27 21:18 | 26.93172 | 33.74434 | 6187 ft | 283 kts | 110° |
| 2026-04-27 21:18 | 26.92796 | 33.76582 | 5719 ft | 284 kts | 82° |
| 2026-04-27 21:18 | 26.93401 | 33.78619 | 5017 ft | 268 kts | 51° |
| 2026-04-27 21:19 | 26.94438 | 33.80203 | 4810 ft | 245 kts | 46° |
| 2026-04-27 21:19 | 26.95487 | 33.81623 | 4585 ft | 228 kts | 45° |
| 2026-04-27 21:19 | 26.96442 | 33.82979 | 4450 ft | 217 kts | 45° |
| 2026-04-27 21:20 | 26.98906 | 33.84502 | 4274 ft | 191 kts | 356° |
| 2026-04-27 21:20 | 27.00145 | 33.84246 | 4263 ft | 175 kts | 344° |
| 2026-04-27 21:20 | 27.01327 | 33.83926 | 4045 ft | 176 kts | 345° |
| 2026-04-27 21:20 | 27.02535 | 33.83599 | 3636 ft | 179 kts | 343° |
| 2026-04-27 21:21 | 27.03719 | 33.83266 | 3286 ft | 179 kts | 343° |
| 2026-04-27 21:21 | 27.04954 | 33.82907 | 2766 ft | 187 kts | 343° |
| 2026-04-27 21:21 | 27.06236 | 33.82532 | 2243 ft | 194 kts | 343° |
| 2026-04-27 21:21 | 27.07530 | 33.82163 | 2050 ft | 182 kts | 343° |
| 2026-04-27 21:22 | 27.08729 | 33.81826 | 1747 ft | 172 kts | 343° |
| 2026-04-27 21:22 | 27.09861 | 33.81479 | 1357 ft | 164 kts | 342° |
| 2026-04-27 21:22 | 27.10922 | 33.81154 | 1076 ft | 153 kts | 342° |
| 2026-04-27 21:22 | 27.11915 | 33.80862 | 795 ft | 146 kts | 341° |
| 2026-04-27 21:23 | 27.12717 | 33.80651 | 694 ft | 142 kts | 341° |
| 2026-04-27 21:23 | 27.12898 | 33.80604 | 655 ft | 141 kts | 342° |
| 2026-04-27 21:23 | 27.13605 | 33.80380 | 537 ft | 151 kts | 341° |
| 2026-04-27 21:23 | 27.14643 | 33.80064 | 414 ft | 151 kts | 340° |
| 2026-04-27 21:24 | 27.15608 | 33.79773 | 225 ft | 147 kts | 342° |
| 2026-04-27 21:24 | 27.16584 | 33.79480 | 113 ft | 135 kts | 345° |
| 2026-04-27 21:24 | 27.17396 | 33.79243 | 99 ft | 100 kts | 345° |
| 2026-04-27 21:24 | 27.17916 | 33.79089 | 99 ft | 59 kts | 346° |
| 2026-04-27 21:25 | 27.18281 | 33.78998 | 100 ft | 44 kts | 359° |
| 2026-04-27 21:25 | 27.18545 | 33.79054 | 95 ft | 33 kts | 17° |
| 2026-04-27 21:25 | 27.18763 | 33.79037 | 93 ft | 32 kts | 345° |
| 2026-04-27 21:25 | 27.18934 | 33.79031 | 85 ft | 24 kts | 55° |
| 2026-04-27 21:26 | 27.18984 | 33.79228 | 67 ft | 29 kts | 75° |
| 2026-04-27 21:26 | 27.19043 | 33.79469 | 58 ft | 35 kts | 74° |
| 2026-04-27 21:26 | 27.19095 | 33.79685 | 59 ft | 34 kts | 78° |
| 2026-04-27 21:26 | 27.19112 | 33.79895 | 56 ft | 22 kts | 140° |
| 2026-04-27 21:27 | 27.18994 | 33.79934 | 57 ft | 18 kts | 167° |
| 2026-04-27 21:27 | 27.18865 | 33.79970 | 57 ft | 20 kts | 163° |
| 2026-04-27 21:27 | 27.18721 | 33.80016 | 53 ft | 22 kts | 165° |
| 2026-04-27 21:27 | 27.18570 | 33.80074 | 50 ft | 20 kts | 126° |
| 2026-04-27 21:28 | 27.18585 | 33.80207 | 53 ft | 16 kts | 75° |
| 2026-04-27 21:28 | 27.18611 | 33.80314 | 57 ft | 11 kts | 75° |
| 2026-04-27 21:28 | 27.18635 | 33.80395 | 55 ft | 7 kts | 45° |
| 2026-04-27 21:28 | 27.18681 | 33.80382 | 54 ft | 8 kts | 344° |
| 2026-04-27 21:29 | 27.18733 | 33.80366 | 55 ft | 8 kts | 344° |
| 2026-04-27 21:29 | 27.18770 | 33.80383 | 51 ft | 6 kts | 79° |
| 2026-04-27 21:29 | 27.18780 | 33.80427 | 56 ft | 0 kts | 75° |
| 2026-04-27 21:29 | 27.18781 | 33.80434 | 54 ft | 0 kts | 75° |